Latest Weather Observations for Centre Island

IDD60801

Issued at 6:01 am CST Thursday 16 August 2018 (issued every 10 minutes, with the page automatically refreshed every 10 minutes)

About weather observations | Map of weather stations | Latest weather observations for NT | Other Formats
Station Details ID: 014703 Name: CENTRE ISLAND Lat: -15.74 Lon: 136.82 Height: 12.2 m
Data from the previous 72 hours. | See also: Recent months at Centre Island
Date/Time
CST
Temp
°C
App
Temp
°C
Dew
Point
°C
Rel
Hum
%
Delta-T
°C
Wind Press
QNH
hPa
Press
MSL
hPa
Rain since
9am
mm
Dir  Spd
km/h
Gust
km/h
Spd
kts
Gust
kts
16/06:00am 18.7 19.3 18.5 99 0.1 WSW 13 19 7 10 1014.4 1014.4 0.0
16/05:30am 19.0 19.7 18.8 99 0.1 W 13 17 7 9 1014.2 1014.2 0.0
16/05:00am 19.1 21.0 18.9 99 0.1 SW 7 11 4 6 1014.2 1014.2 0.0
16/04:30am 19.1 20.2 18.9 99 0.1 S 11 13 6 7 1014.2 1014.2 0.0
16/04:00am 19.3 20.5 19.1 99 0.1 S 11 15 6 8 1014.2 1014.2 0.0
16/03:30am 19.4 21.4 19.1 98 0.2 SSW 7 9 4 5 1014.2 1014.2 0.0
16/03:00am 19.6 21.2 19.1 97 0.3 S 9 15 5 8 1014.6 1014.6 0.0
16/02:30am 19.9 22.7 18.9 94 0.6 ENE 2 11 1 6 1014.8 1014.8 0.0
16/02:00am 19.6 22.5 18.3 92 0.8 CALM 0 0 0 0 1014.9 1014.9 0.0
16/01:30am 19.9 22.1 18.4 91 0.9 ENE 4 7 2 4 1015.0 1015.0 0.0
16/01:00am 20.4 22.0 19.1 92 0.8 NE 9 11 5 6 1015.3 1015.3 0.0
16/12:30am 20.5 22.4 19.0 91 0.9 ENE 7 9 4 5 1015.5 1015.5 0.0
16/12:00am 20.8 22.2 19.5 92 0.8 E 11 13 6 7 1015.5 1015.5 0.0
 
Date/Time
CST
Temp
°C
App
Temp
°C
Dew
Point
°C
Rel
Hum
%
Delta-T
°C
Wind Press
QNH
hPa
Press
MSL
hPa
Rain since
9am
mm
Dir  Spd
km/h
Gust
km/h
Spd
kts
Gust
kts
15/11:30pm 21.0 22.4 19.5 91 1.0 E 11 13 6 7 1015.7 1015.7 0.0
15/11:00pm 21.1 22.4 19.4 90 1.1 E 11 15 6 8 1015.8 1015.8 0.0
15/10:30pm 21.3 22.7 19.6 90 1.1 ESE 11 13 6 7 1015.9 1015.9 0.0
15/10:00pm 21.0 22.6 19.1 89 1.2 E 9 11 5 6 1015.9 1015.9 0.0
15/09:30pm 21.4 22.3 19.3 88 1.3 ENE 13 15 7 8 1015.9 1015.9 0.0
15/09:00pm 21.4 22.7 19.3 88 1.3 NE 11 13 6 7 1015.8 1015.8 0.0
15/08:30pm 21.6 23.2 19.2 86 1.5 NNE 9 13 5 7 1015.6 1015.6 0.0
15/08:00pm 21.9 22.3 19.1 84 1.8 NE 15 19 8 10 1015.1 1015.1 0.0
15/07:30pm 22.0 21.9 18.8 82 2.0 NE 17 20 9 11 1014.7 1014.7 0.0
15/07:00pm 22.2 21.6 18.4 79 2.4 NE 19 24 10 13 1014.5 1014.5 0.0
15/06:30pm 22.6 21.1 17.7 74 3.0 NE 22 30 12 16 1014.2 1014.2 0.0
15/06:00pm 23.1 21.8 17.3 70 3.6 NE 20 28 11 15 1013.9 1013.9 0.0
15/05:30pm 24.8 22.6 14.3 52 6.2 NE 19 24 10 13 1013.7 1013.7 0.0
15/05:00pm 25.8 21.2 11.2 40 8.3 ENE 26 30 14 16 1013.5 1013.5 0.0
15/04:30pm 26.5 21.4 10.6 37 8.9 E 28 32 15 17 1013.5 1013.5 0.0
15/04:00pm 26.5 21.9 11.0 38 8.8 E 26 32 14 17 1013.7 1013.7 0.0
15/03:30pm 27.2 22.3 11.3 37 9.1 E 28 32 15 17 1013.7 1013.7 0.0
15/03:00pm 27.1 21.2 10.3 35 9.4 E 32 37 17 20 1013.8 1013.8 0.0
15/02:30pm 27.1 21.0 10.3 35 9.4 E 33 39 18 21 1014.2 1014.2 0.0
15/02:00pm 27.2 20.8 9.5 33 9.8 E 33 41 18 22 1014.7 1014.7 0.0
15/01:30pm 27.2 21.3 10.4 35 9.4 E 32 37 17 20 1015.2 1015.2 0.0
15/01:00pm 27.0 21.5 10.7 36 9.2 E 30 35 16 19 1015.9 1015.9 0.0
15/12:30pm 26.6 20.9 9.9 35 9.3 E 30 35 16 19 1016.3 1016.3 0.0
15/12:00pm 26.7 20.6 8.2 31 10.0 E 30 35 16 19 1016.8 1016.8 0.0
15/11:30am 26.2 20.1 8.2 32 9.7 ENE 30 35 16 19 1017.2 1017.2 0.0
15/11:00am 26.5 21.7 8.9 33 9.6 ENE 24 32 13 17 1017.6 1017.6 0.0
15/10:30am 25.9 22.2 10.1 37 8.8 E 20 26 11 14 1017.8 1017.8 0.0
15/10:00am 23.2 21.7 11.9 49 6.4 ENE 11 15 6 8 1017.9 1017.9 0.0
15/09:30am 22.5 20.3 10.9 48 6.4 SE 13 17 7 9 1017.8 1017.8 0.0
15/09:00am 22.2 19.3 11.0 49 6.2 SE 17 26 9 14 1017.3 1017.3 0.0
15/08:30am 21.1 19.1 12.8 59 4.7 S 15 20 8 11 1017.2 1017.2 0.0
15/08:00am 20.5 18.1 12.7 61 4.4 SSE 17 20 9 11 1017.0 1017.0 0.0
15/07:30am 18.9 17.4 15.2 79 2.2 S 17 20 9 11 1016.8 1016.8 0.0
15/07:00am 17.8 16.4 14.5 81 1.9 S 15 19 8 10 1016.6 1016.6 0.0
15/06:30am 17.5 16.7 15.0 85 1.4 SSW 13 15 7 8 1016.3 1016.3 0.0
15/06:00am 17.7 16.3 15.5 87 1.3 S 17 20 9 11 1016.3 1016.3 0.0
15/05:34am 18.5 17.8 17.3 93 0.7 S 17 41 9 22 1016.2 1016.2 0.0
15/05:30am 18.4 18.0 17.2 93 0.7 SSW 15 17 8 9 1015.8 1015.8 0.0
15/05:00am 18.7 19.3 17.7 94 0.6 SSW 11 17 6 9 1015.8 1015.8 0.0
15/04:30am 18.9 19.6 17.9 94 0.6 S 11 15 6 8 1015.7 1015.7 0.0
15/04:00am 18.9 19.1 17.7 93 0.7 SSW 13 15 7 8 1015.8 1015.8 0.0
15/03:30am 18.8 19.3 17.5 92 0.8 SSW 11 15 6 8 1015.9 1015.9 0.0
15/03:00am 19.6 20.5 18.4 93 0.7 SSW 11 15 6 8 1016.1 1016.1 0.0
15/02:30am 19.7 21.4 18.4 92 0.8 SSE 7 11 4 6 1016.4 1016.4 0.0
15/02:00am 19.6 21.0 17.9 90 1.0 ENE 7 11 4 6 1016.4 1016.4 0.0
15/01:30am 19.8 21.3 18.1 90 1.0 ENE 7 9 4 5 1016.7 1016.7 0.0
15/01:00am 19.8 21.2 17.9 89 1.2 ENE 7 9 4 5 1016.9 1016.9 0.0
15/12:30am 19.7 21.8 17.3 86 1.5 ENE 2 6 1 3 1017.1 1017.1 0.0
15/12:00am 20.1 21.5 17.7 86 1.5 ENE 7 9 4 5 1017.3 1017.3 0.0
 
Date/Time
CST
Temp
°C
App
Temp
°C
Dew
Point
°C
Rel
Hum
%
Delta-T
°C
Wind Press
QNH
hPa
Press
MSL
hPa
Rain since
9am
mm
Dir  Spd
km/h
Gust
km/h
Spd
kts
Gust
kts
14/11:30pm 20.4 21.4 17.8 85 1.6 ENE 9 13 5 7 1017.7 1017.7 0.0
14/11:00pm 20.6 21.6 17.8 84 1.7 ENE 9 11 5 6 1017.6 1017.6 0.0
14/10:30pm 20.8 20.5 17.4 81 2.1 ENE 15 17 8 9 1017.4 1017.4 0.0
14/10:00pm 21.0 19.9 17.2 79 2.3 ENE 19 20 10 11 1017.5 1017.5 0.0
14/09:30pm 21.2 20.1 16.4 74 2.9 E 17 20 9 11 1017.5 1017.5 0.0
14/09:00pm 21.5 20.1 15.6 69 3.5 ENE 17 20 9 11 1017.4 1017.4 0.0
14/08:30pm 21.8 19.3 13.4 59 4.8 E 19 20 10 11 1017.2 1017.2 0.0
14/08:00pm 22.2 20.0 13.3 57 5.1 NE 17 24 9 13 1017.0 1017.0 0.0
14/07:30pm 22.3 19.2 12.3 53 5.7 ENE 20 24 11 13 1016.6 1016.6 0.0
14/07:00pm 22.8 19.1 11.5 49 6.3 ENE 22 26 12 14 1016.1 1016.1 0.0
14/06:30pm 23.1 20.1 12.4 51 6.1 ENE 20 22 11 12 1016.2 1016.2 0.0
14/06:00pm 23.4 20.4 12.4 50 6.3 E 20 26 11 14 1016.0 1016.0 0.0
14/05:30pm 24.1 20.2 12.1 47 6.8 E 24 30 13 16 1015.9 1015.9 0.0
14/05:00pm 24.6 20.0 11.2 43 7.5 E 26 30 14 16 1015.7 1015.7 0.0
14/04:30pm 25.2 21.7 12.1 44 7.5 E 22 26 12 14 1015.7 1015.7 0.0
14/04:00pm 25.4 21.1 11.9 43 7.7 ENE 26 30 14 16 1015.9 1015.9 0.0
14/03:30pm 26.1 23.1 13.6 46 7.4 E 22 26 12 14 1016.1 1016.1 0.0
14/03:00pm 25.8 22.4 12.6 44 7.6 ESE 22 28 12 15 1016.4 1016.4 0.0
14/02:30pm 26.3 22.2 11.6 40 8.4 SE 24 28 13 15 1016.5 1016.5 0.0
14/02:00pm 25.3 22.2 11.5 42 7.8 ESE 19 22 10 12 1017.1 1017.1 0.0
14/01:30pm 25.4 22.0 10.4 39 8.3 ESE 19 20 10 11 1017.7 1017.7 0.0
14/01:00pm 24.9 20.9 9.2 37 8.5 ESE 20 22 11 12 1018.5 1018.5 0.0
14/12:30pm 25.2 20.4 8.7 35 8.9 ESE 24 30 13 16 1019.0 1019.0 0.0
14/12:00pm 24.3 18.0 7.4 34 8.8 ESE 30 35 16 19 1019.5 1019.5 0.0
14/11:30am 22.9 14.8 7.1 36 8.2 ESE 39 44 21 24 1019.7 1019.7 0.0
14/11:00am 22.6 14.9 8.7 41 7.4 ESE 39 44 21 24 1020.3 1020.3 0.0
14/10:30am 22.2 13.2 7.2 38 7.7 ESE 44 50 24 27 1020.6 1020.6 0.0
14/10:00am 21.7 11.8 6.4 37 7.8 ESE 48 56 26 30 1020.7 1020.7 0.0
14/09:30am 21.5 10.5 5.0 34 8.1 ESE 52 63 28 34 1020.6 1020.6 0.0
14/09:17am 21.4 13.7 5.3 35 8.0 ESE 35 54 19 29 1020.8 1020.8 0.0
14/09:00am 19.9 13.0 2.7 32 8.0 SE 28 37 15 20 1021.1 1021.1 0.0
14/08:30am 19.4 11.7 2.3 32 7.8 SE 32 39 17 21 1020.1 1020.1 0.0
14/08:00am 18.9 12.7 2.3 33 7.6 SSE 24 30 13 16 1019.9 1019.9 0.0
14/07:30am 18.8 12.1 3.4 36 7.2 SSE 28 35 15 19 1019.6 1019.6 0.0
14/07:00am 18.5 12.1 3.2 36 7.1 SSE 26 32 14 17 1019.7 1019.7 0.0
14/06:30am 18.3 13.1 3.4 37 6.9 SE 20 24 11 13 1019.5 1019.5 0.0
14/06:00am 18.4 12.8 3.5 37 7.0 SSE 22 28 12 15 1019.1 1019.1 0.0
14/05:30am 18.2 13.4 5.8 44 6.0 SSE 20 24 11 13 1018.9 1018.9 0.0
14/05:00am 18.3 12.5 4.5 40 6.6 SSE 24 28 13 15 1018.7 1018.7 0.0
14/04:30am 18.4 12.7 4.9 41 6.5 SE 24 32 13 17 1018.7 1018.7 0.0
14/04:00am 19.0 11.9 5.5 41 6.6 SE 32 39 17 21 1018.5 1018.5 0.0
14/03:30am 19.1 12.3 6.9 45 6.1 SE 32 39 17 21 1018.5 1018.5 0.0
14/03:00am 19.5 11.4 5.2 39 7.0 SE 37 44 20 24 1018.6 1018.6 0.0
14/02:30am 19.7 11.5 6.4 42 6.6 SE 39 48 21 26 1018.6 1018.6 0.0
14/02:00am 20.2 12.0 6.5 41 6.9 SE 39 48 21 26 1018.8 1018.8 0.0
14/01:30am 20.5 12.7 6.5 40 7.0 SE 37 43 20 23 1018.9 1018.9 0.0
14/01:00am 20.9 13.5 8.2 44 6.6 SE 37 41 20 22 1019.0 1019.0 0.0
14/12:30am 20.8 14.2 7.8 43 6.7 SE 32 37 17 20 1019.2 1019.2 0.0
14/12:00am 20.7 14.5 7.7 43 6.7 SE 30 33 16 18 1019.3 1019.3 0.0
 
Date/Time
CST
Temp
°C
App
Temp
°C
Dew
Point
°C
Rel
Hum
%
Delta-T
°C
Wind Press
QNH
hPa
Press
MSL
hPa
Rain since
9am
mm
Dir  Spd
km/h
Gust
km/h
Spd
kts
Gust
kts
13/11:30pm 21.5 14.9 7.7 41 7.1 SE 32 35 17 19 1019.3 1019.3 0.0
13/11:00pm 21.9 15.8 9.8 46 6.5 SE 32 39 17 21 1019.2 1019.2 0.0
13/10:30pm 22.0 16.3 9.9 46 6.5 SE 30 33 16 18 1019.3 1019.3 0.0
13/10:00pm 22.1 18.6 13.5 58 5.0 SE 24 30 13 16 1019.3 1019.3 0.0
13/09:30pm 22.4 18.7 14.0 59 4.9 SE 26 32 14 17 1019.2 1019.2 0.0
13/09:00pm 22.5 19.0 13.3 56 5.3 ESE 24 28 13 15 1019.1 1019.1 0.0
13/08:30pm 22.5 18.6 12.2 52 5.8 ESE 24 30 13 16 1018.8 1018.8 0.0
13/08:00pm 22.4 18.9 10.9 48 6.4 ESE 20 26 11 14 1018.4 1018.4 0.0
13/07:30pm 22.6 18.1 10.1 45 6.8 ESE 24 28 13 15 1018.1 1018.1 0.0
13/07:00pm 22.7 18.6 10.2 45 6.8 ESE 22 26 12 14 1017.9 1017.9 0.0
13/06:30pm 22.9 19.4 10.3 45 6.9 E 19 22 10 12 1017.7 1017.7 0.0
13/06:00pm 23.2 19.5 9.6 42 7.4 E 19 22 10 12 1017.4 1017.4 0.0
13/05:30pm 24.0 19.7 8.0 36 8.5 E 20 26 11 14 1017.2 1017.2 0.0
13/05:00pm 24.7 20.4 6.9 32 9.3 ENE 19 22 10 12 1017.2 1017.2 0.0
13/04:30pm 25.1 21.7 7.7 33 9.2 E 15 19 8 10 1017.0 1017.0 0.0
13/04:00pm 25.1 21.2 8.6 35 8.9 ENE 19 24 10 13 1017.0 1017.0 0.0
13/03:30pm 25.4 21.0 7.5 32 9.5 E 20 24 11 13 1017.0 1017.0 0.0
13/03:00pm 25.7 21.4 7.8 32 9.5 ESE 20 24 11 13 1017.1 1017.1 0.0
13/02:30pm 26.0 21.1 7.1 30 9.9 E 22 28 12 15 1017.5 1017.5 0.0
13/02:00pm 25.7 20.3 6.3 29 10.1 ESE 24 28 13 15 1018.1 1018.1 0.0
13/01:30pm 25.4 19.8 7.1 31 9.6 ESE 26 30 14 16 1018.6 1018.6 0.0
13/01:00pm 24.7 18.4 5.5 29 9.8 ESE 28 32 15 17 1019.1 1019.1 0.0
13/12:30pm 24.6 18.0 5.9 30 9.5 ESE 30 35 16 19 1019.5 1019.5 0.0
13/12:00pm 23.9 16.9 6.2 32 9.0 ESE 32 35 17 19 1019.9 1019.9 0.0
13/11:30am 23.5 17.0 6.3 33 8.8 ESE 30 35 16 19 1020.5 1020.5 0.0
13/11:00am 23.6 16.0 4.0 28 9.6 SE 33 39 18 21 1020.7 1020.7 0.0
13/10:30am 22.9 14.7 2.9 27 9.5 SE 35 43 19 23 1021.0 1021.0 0.0
13/10:00am 21.8 14.1 2.5 28 9.1 SE 32 39 17 21 1021.1 1021.1 0.0
13/09:30am 20.7 13.0 2.5 30 8.5 SE 32 39 17 21 1021.2 1021.2 0.0
13/09:00am 19.9 12.6 2.3 31 8.1 SSE 30 35 16 19 1021.1 1021.1 0.0
13/08:30am 19.3 11.6 2.2 32 7.8 SSE 32 37 17 20 1020.8 1020.8 0.0
13/08:00am 19.2 11.7 3.4 35 7.4 SSE 32 39 17 21 1020.6 1020.6 0.0
13/07:30am 18.8 11.2 2.6 34 7.4 SSE 32 37 17 20 1020.3 1020.3 0.0
13/07:00am 18.6 11.0 2.9 35 7.3 SSE 32 39 17 21 1020.0 1020.0 0.0
13/06:30am 18.6 10.7 2.4 34 7.4 SSE 33 39 18 21 1019.6 1019.6 0.0

Other Formats:

Comma delimited format used in spreadsheet applications
http://www.bom.gov.au/fwo/IDD60801/IDD60801.94248.axf

JavaScript Object Notation format (JSON) in row-major order
http://www.bom.gov.au/fwo/IDD60801/IDD60801.94248.json